Capitol Logistics 331


PANC
Ted Stevens Anchorage International Airport
Anchorage, Alaska, US
KRFD
Chicago/Rockford International Airport
Rockford, Illinois, US

Route Details

Aircraft Information
Primary: Boeing 767-300BDSF
Backup: Not Available
Route Data
Distance: 2428nm
Sched. Duration: 5h 20m
Avg. Duration: 5h 40m (+20m)
Times Flown: 7
Recm'd Route: TED YESKA NCA13 YQD VBI J538 DLL JVL
Planned Altitude: 33,000ft
Origin Wx: PANC 281153Z 00000KT 10SM CLR M12/M13 A2974 RMK AO2 SLP075 4/018 I6001 T11221133 11083 21144 53014 $
Dest. Wx: KRFD 281154Z 30006KT 10SM BKN060 OVC075 M07/M12 A3005 RMK AO2 SLP189 T10671117 11067 21072 55001
Notes:

Financial History
Total Freight: 618,218lbs
Average Load: 88,317lbs/flt
Fuel Used: 417,362lbs
Avg. Fuel Used: 59,623lbs/flt
Fuel Expense: $518,562
Avg. Fuel Expense: $74,080
Avg. Fuel Cost: $1.25/lbs
Total Gross Income: $1,259,304
Pilot Pay: $1,423
Total Expenses: $130,271
Total Revenue: $602,333
Average Revenue: $179,900.63